Time;durP1;ratioP1;P1;durP2;ratioP2;P2;SDS_P1;SDS_P2;PMS_P1;PMS_P2;Temp;Humidity;BMP_temperature;BMP_pressure;BME280_temperature;BME280_humidity;BME280_pressure;Samples;Min_cycle;Max_cycle;Signal;HPM_P1;HPM_P2
2022/02/14 00:00:16;;;;;;;28.67;11.17;;;0.00;99.90;;;;;;4433151;32;20512;-69
2022/02/14 00:02:44;;;;;;;23.67;11.57;;;0.00;99.90;;;;;;4425918;32;20222;-69
2022/02/14 00:05:11;;;;;;;25.33;11.10;;;0.00;99.90;;;;;;4425787;32;20198;-70
2022/02/14 00:07:39;;;;;;;24.47;10.50;;;0.00;99.90;;;;;;4433469;32;20197;-70
2022/02/14 00:10:07;;;;;;;28.20;11.63;;;0.00;99.90;;;;;;4424066;32;20524;-69
2022/02/14 00:12:39;;;;;;;25.83;11.30;;;0.00;99.90;;;;;;4426909;32;20166;-69
2022/02/14 00:15:07;;;;;;;24.93;10.77;;;0.00;99.90;;;;;;4425151;32;20239;-69
2022/02/14 00:17:34;;;;;;;27.00;11.10;;;0.00;99.90;;;;;;4424424;32;20213;-69
2022/02/14 00:20:01;;;;;;;28.53;11.60;;;0.00;99.90;;;;;;4424569;32;20183;-70
2022/02/14 00:22:28;;;;;;;25.03;10.37;;;0.00;99.90;;;;;;4423797;32;20211;-69
2022/02/14 00:24:55;;;;;;;26.93;11.00;;;0.00;99.90;;;;;;4423821;32;20235;-69
2022/02/14 00:27:22;;;;;;;24.43;10.40;;;0.00;99.90;;;;;;4424784;32;20201;-69
2022/02/14 00:29:49;;;;;;;26.20;11.17;;;-0.10;99.90;;;;;;4425079;32;20179;-69
2022/02/14 00:32:20;;;;;;;24.67;10.13;;;-0.10;99.90;;;;;;4424145;32;20175;-70
2022/02/14 00:34:48;;;;;;;22.80;9.87;;;-0.10;99.90;;;;;;4424306;32;20189;-69
2022/02/14 00:37:16;;;;;;;28.60;11.30;;;-0.10;99.90;;;;;;4423994;32;20613;-70
2022/02/14 00:39:43;;;;;;;24.77;10.60;;;-0.20;99.90;;;;;;4424334;32;20202;-70
2022/02/14 00:42:11;;;;;;;23.23;10.80;;;-0.10;99.90;;;;;;4425747;32;20143;-69
2022/02/14 00:44:38;;;;;;;25.53;10.53;;;0.00;99.90;;;;;;4425304;32;20213;-69
2022/02/14 00:47:05;;;;;;;22.40;10.77;;;0.00;99.90;;;;;;4425146;32;20524;-69
2022/02/14 00:49:32;;;;;;;25.13;10.27;;;-0.10;99.90;;;;;;4424654;32;20209;-70
2022/02/14 00:51:59;;;;;;;26.30;10.53;;;0.00;99.90;;;;;;4423934;32;20251;-70
2022/02/14 00:54:26;;;;;;;27.00;10.47;;;-0.10;99.90;;;;;;4424486;32;20162;-70
2022/02/14 00:56:53;;;;;;;23.93;10.00;;;-0.10;99.90;;;;;;4423991;32;20463;-70
2022/02/14 00:59:21;;;;;;;26.53;10.30;;;-0.10;99.90;;;;;;4424152;32;20186;-70
2022/02/14 01:01:49;;;;;;;24.53;10.00;;;-0.10;99.90;;;;;;4425387;32;20171;-70
2022/02/14 01:04:16;;;;;;;25.17;10.60;;;-0.10;99.90;;;;;;4425211;32;20169;-69
2022/02/14 01:06:43;;;;;;;25.67;10.50;;;-0.10;99.90;;;;;;4424461;32;20170;-70
2022/02/14 01:09:10;;;;;;;26.53;10.27;;;-0.10;99.90;;;;;;4423736;32;20174;-70
2022/02/14 01:11:38;;;;;;;27.63;11.10;;;-0.20;99.90;;;;;;4423189;32;20208;-69
2022/02/14 01:14:06;;;;;;;25.60;10.33;;;-0.20;99.90;;;;;;4424895;32;20144;-69
2022/02/14 01:16:34;;;;;;;26.67;10.80;;;-0.20;99.90;;;;;;4423570;32;20190;-70
2022/02/14 01:19:01;;;;;;;26.00;10.67;;;-0.20;99.90;;;;;;4423442;32;20174;-70
2022/02/14 01:21:28;;;;;;;21.60;9.93;;;-0.20;99.90;;;;;;4423520;32;20178;-69
2022/02/14 01:23:55;;;;;;;25.00;10.70;;;-0.30;99.90;;;;;;4423582;32;20174;-70
2022/02/14 01:26:22;;;;;;;29.93;11.40;;;-0.30;99.90;;;;;;4424739;32;20197;-69
2022/02/14 01:28:49;;;;;;;24.87;10.70;;;-0.30;99.90;;;;;;4423549;32;20178;-69
2022/02/14 01:31:16;;;;;;;28.93;10.97;;;-0.40;99.90;;;;;;4423677;32;20187;-70
2022/02/14 01:33:43;;;;;;;26.97;11.43;;;-0.40;99.90;;;;;;4424370;32;20216;-70
2022/02/14 01:36:10;;;;;;;27.63;11.43;;;-0.40;99.90;;;;;;4424806;32;20224;-70
2022/02/14 01:38:37;;;;;;;27.17;11.40;;;-0.50;99.90;;;;;;4422948;32;20167;-69
2022/02/14 01:41:04;;;;;;;25.67;10.70;;;-0.50;99.90;;;;;;4424738;32;20253;-69
2022/02/14 01:43:31;;;;;;;25.97;10.87;;;-0.50;99.90;;;;;;4423243;32;20174;-69
2022/02/14 01:45:58;;;;;;;27.37;11.37;;;-0.50;99.90;;;;;;4424469;32;20212;-69
2022/02/14 01:48:25;;;;;;;27.83;11.20;;;-0.60;99.90;;;;;;4424178;32;20155;-70
2022/02/14 01:50:52;;;;;;;26.03;10.83;;;-0.60;99.90;;;;;;4425960;32;20149;-69
2022/02/14 01:53:20;;;;;;;29.13;11.17;;;-0.60;99.90;;;;;;4423251;32;20173;-69
2022/02/14 01:55:48;;;;;;;24.67;11.40;;;-0.70;99.90;;;;;;4423384;32;20533;-69
2022/02/14 01:58:15;;;;;;;27.53;11.27;;;-0.70;99.90;;;;;;4423521;32;20198;-69
2022/02/14 02:00:43;;;;;;;24.90;11.10;;;-0.70;99.90;;;;;;4422371;32;20187;-70
2022/02/14 02:03:10;;;;;;;26.97;11.10;;;-0.70;99.90;;;;;;4423351;32;20471;-69
2022/02/14 02:05:38;;;;;;;23.30;11.47;;;-0.80;99.90;;;;;;4423042;32;20178;-70
2022/02/14 02:08:05;;;;;;;25.93;11.37;;;-0.70;99.90;;;;;;4423021;32;20183;-70
2022/02/14 02:10:32;;;;;;;25.70;11.23;;;-0.70;99.90;;;;;;4426508;32;20205;-70
2022/02/14 02:13:00;;;;;;;26.77;11.53;;;-0.70;99.90;;;;;;4423705;32;20154;-69
2022/02/14 02:15:27;;;;;;;29.43;12.10;;;-0.80;99.90;;;;;;4424625;32;20236;-69
2022/02/14 02:17:55;;;;;;;26.53;10.60;;;-0.80;99.90;;;;;;4423861;32;20278;-70
2022/02/14 02:20:22;;;;;;;30.07;11.33;;;-0.70;99.90;;;;;;4424273;32;20201;-69
2022/02/14 02:22:51;;;;;;;25.57;11.47;;;-0.70;99.90;;;;;;4423193;32;20166;-69
2022/02/14 02:25:19;;;;;;;26.97;11.67;;;-0.70;99.90;;;;;;4423261;32;20236;-69
2022/02/14 02:27:46;;;;;;;28.87;11.37;;;-0.70;99.90;;;;;;4424442;32;20528;-70
2022/02/14 02:30:17;;;;;;;27.23;11.70;;;-0.80;99.90;;;;;;4423664;32;20206;-69
2022/02/14 02:32:45;;;;;;;29.87;11.90;;;-0.80;99.90;;;;;;4424066;32;20209;-70
2022/02/14 02:35:13;;;;;;;23.33;11.00;;;-0.80;99.90;;;;;;4424198;32;20177;-69
2022/02/14 02:37:40;;;;;;;29.17;11.17;;;-0.80;99.90;;;;;;4422789;32;20174;-69
2022/02/14 02:40:09;;;;;;;28.63;10.77;;;-0.80;99.90;;;;;;4423975;32;20216;-69
2022/02/14 02:42:39;;;;;;;24.83;11.30;;;-0.80;99.90;;;;;;4422788;32;20236;-69
2022/02/14 02:45:06;;;;;;;27.30;11.17;;;-0.70;99.90;;;;;;4424197;32;20200;-69
2022/02/14 02:47:33;;;;;;;28.07;10.53;;;-0.70;99.90;;;;;;4422171;32;20297;-70
2022/02/14 02:50:00;;;;;;;28.43;10.27;;;-0.70;99.90;;;;;;4423971;32;20193;-70
2022/02/14 02:52:27;;;;;;;24.27;10.60;;;-0.70;99.90;;;;;;4422855;32;20540;-70
2022/02/14 02:54:56;;;;;;;26.50;10.77;;;-0.70;99.90;;;;;;4422342;32;20324;-70
2022/02/14 02:57:24;;;;;;;25.07;10.47;;;-0.70;99.90;;;;;;4423146;32;20182;-70
2022/02/14 02:59:53;;;;;;;28.10;11.93;;;-0.70;99.90;;;;;;4424746;32;20201;-69
2022/02/14 03:02:21;;;;;;;24.33;10.77;;;-0.70;99.90;;;;;;4424926;32;20178;-69
2022/02/14 03:04:48;;;;;;;26.10;10.90;;;-0.70;99.90;;;;;;4425952;32;20253;-69
2022/02/14 03:07:15;;;;;;;28.23;11.40;;;-0.70;99.90;;;;;;4426710;32;20186;-69
2022/02/14 03:09:42;;;;;;;26.57;10.80;;;-0.70;99.90;;;;;;4425529;32;20198;-69
2022/02/14 03:12:10;;;;;;;26.97;10.97;;;-0.70;99.90;;;;;;4424961;32;20213;-70
2022/02/14 03:14:39;;;;;;;27.97;11.30;;;-0.70;99.90;;;;;;4426786;32;20167;-69
2022/02/14 03:17:10;;;;;;;27.37;11.03;;;-0.70;99.90;;;;;;4424847;32;20179;-70
2022/02/14 03:19:38;;;;;;;27.07;10.93;;;-0.70;99.90;;;;;;4424868;32;20186;-69
2022/02/14 03:22:05;;;;;;;30.17;11.70;;;-0.70;99.90;;;;;;4427710;32;20212;-70
2022/02/14 03:24:32;;;;;;;28.33;11.63;;;-0.80;99.90;;;;;;4425096;32;20175;-70
2022/02/14 03:26:59;;;;;;;29.17;11.47;;;-0.80;99.90;;;;;;4425279;32;20202;-69
2022/02/14 03:29:26;;;;;;;30.40;11.83;;;-0.80;99.90;;;;;;4426363;32;20182;-70
2022/02/14 03:31:54;;;;;;;26.57;11.30;;;-0.90;99.90;;;;;;4425811;32;20192;-71
2022/02/14 03:34:21;;;;;;;29.33;11.53;;;-0.90;99.90;;;;;;4425947;32;20266;-69
2022/02/14 03:36:48;;;;;;;24.10;10.97;;;-0.90;99.90;;;;;;4426340;32;20544;-70
2022/02/14 03:39:15;;;;;;;26.73;10.90;;;-0.90;99.90;;;;;;4427611;32;20415;-70
2022/02/14 03:41:42;;;;;;;27.80;11.20;;;-0.90;99.90;;;;;;4426624;32;20209;-70
2022/02/14 03:44:10;;;;;;;28.70;10.87;;;-0.90;99.90;;;;;;4427052;32;20161;-71
2022/02/14 03:46:37;;;;;;;34.40;11.67;;;-0.90;99.90;;;;;;4424987;32;20178;-70
2022/02/14 03:49:05;;;;;;;28.13;11.57;;;-0.90;99.90;;;;;;4427473;32;20172;-70
2022/02/14 03:51:32;;;;;;;28.80;11.43;;;-1.00;99.90;;;;;;4426502;32;20190;-70
2022/02/14 03:53:59;;;;;;;30.03;11.67;;;-1.00;99.90;;;;;;4424470;32;20179;-70
2022/02/14 03:56:26;;;;;;;25.77;10.97;;;-1.00;99.90;;;;;;4424646;32;20221;-70
2022/02/14 03:58:54;;;;;;;26.07;11.27;;;-1.00;99.90;;;;;;4427966;32;20177;-70
2022/02/14 04:01:21;;;;;;;27.37;11.73;;;-1.00;99.90;;;;;;4425763;32;20165;-70
2022/02/14 04:03:48;;;;;;;27.20;11.47;;;-1.00;99.90;;;;;;4426040;32;20426;-70
2022/02/14 04:06:15;;;;;;;27.27;11.57;;;-1.10;99.90;;;;;;4425241;32;20178;-70
2022/02/14 04:08:42;;;;;;;29.90;10.70;;;-1.10;99.90;;;;;;4426216;32;20194;-70
2022/02/14 04:11:09;;;;;;;30.23;11.80;;;-1.10;99.90;;;;;;4423548;32;20574;-70
2022/02/14 04:13:36;;;;;;;28.40;10.97;;;-1.10;99.90;;;;;;4425150;32;20225;-70
2022/02/14 04:16:03;;;;;;;28.40;11.40;;;-1.20;99.90;;;;;;4425648;32;20247;-70
2022/02/14 04:18:30;;;;;;;26.23;11.73;;;-1.20;99.90;;;;;;4425960;32;20197;-70
2022/02/14 04:20:57;;;;;;;25.30;10.60;;;-1.20;99.90;;;;;;4425847;32;20181;-70
2022/02/14 04:23:24;;;;;;;28.87;11.23;;;-1.20;99.90;;;;;;4424898;32;20559;-70
2022/02/14 04:25:52;;;;;;;25.93;11.03;;;-1.20;99.90;;;;;;4425492;32;20202;-69
2022/02/14 04:28:19;;;;;;;24.90;10.27;;;-1.20;99.90;;;;;;4424337;32;20235;-70
2022/02/14 04:30:46;;;;;;;24.30;10.93;;;-1.20;99.90;;;;;;4425139;32;20227;-70
2022/02/14 04:33:13;;;;;;;27.90;11.03;;;-1.30;99.90;;;;;;4425090;32;20511;-70
2022/02/14 04:35:40;;;;;;;27.23;11.10;;;-1.30;99.90;;;;;;4423924;32;20218;-70
2022/02/14 04:38:07;;;;;;;25.03;10.37;;;-1.30;99.90;;;;;;4423811;32;20190;-70
2022/02/14 04:40:37;;;;;;;24.83;10.57;;;-1.30;99.90;;;;;;4424198;32;20178;-70
2022/02/14 04:43:05;;;;;;;26.17;10.33;;;-1.30;99.90;;;;;;4424169;32;20212;-70
2022/02/14 04:45:34;;;;;;;29.07;10.50;;;-1.30;99.90;;;;;;4424145;32;20175;-70
2022/02/14 04:48:01;;;;;;;27.13;10.77;;;-1.20;99.90;;;;;;4424057;32;20199;-70
2022/02/14 04:50:28;;;;;;;26.33;10.50;;;-1.20;99.90;;;;;;4424695;32;20179;-70
2022/02/14 04:52:55;;;;;;;23.90;9.63;;;-1.20;99.90;;;;;;4425002;32;20454;-70
2022/02/14 04:55:22;;;;;;;24.80;10.60;;;-1.20;99.90;;;;;;4423626;32;20228;-70
2022/02/14 04:57:49;;;;;;;25.13;10.33;;;-1.20;99.90;;;;;;4425198;32;20286;-70
2022/02/14 05:00:17;;;;;;;25.40;10.57;;;-1.20;99.90;;;;;;4426249;32;20544;-70
2022/02/14 05:02:45;;;;;;;23.40;10.30;;;-1.20;99.90;;;;;;4424079;32;20183;-70
2022/02/14 05:05:16;;;;;;;23.87;10.20;;;-1.30;99.90;;;;;;4424393;32;20201;-70
2022/02/14 05:07:43;;;;;;;28.13;10.07;;;-1.30;99.90;;;;;;4426086;32;20172;-70
2022/02/14 05:10:10;;;;;;;25.20;10.37;;;-1.30;99.90;;;;;;4424778;32;20200;-70
2022/02/14 05:12:37;;;;;;;25.63;10.63;;;-1.30;99.90;;;;;;4410838;32;20542;-70
2022/02/14 05:15:06;;;;;;;24.03;10.43;;;-1.30;99.90;;;;;;4423663;32;20513;-70
2022/02/14 05:17:33;;;;;;;24.20;10.80;;;-1.30;99.90;;;;;;4426364;32;20150;-70
2022/02/14 05:20:03;;;;;;;24.57;10.20;;;-1.30;99.90;;;;;;4425188;32;20268;-70
2022/02/14 05:22:30;;;;;;;24.30;10.33;;;-1.30;99.90;;;;;;4422360;32;20181;-70
2022/02/14 05:24:57;;;;;;;25.77;10.13;;;-1.30;99.90;;;;;;4425798;32;20197;-70
2022/02/14 05:27:24;;;;;;;20.23;9.40;;;-1.30;99.90;;;;;;4426559;32;20416;-70
2022/02/14 05:29:51;;;;;;;23.80;10.20;;;-1.30;99.90;;;;;;4425667;32;20197;-70
2022/02/14 05:32:23;;;;;;;25.30;10.83;;;-1.30;99.90;;;;;;4424270;32;20222;-70
2022/02/14 05:34:50;;;;;;;21.43;9.43;;;-1.30;99.90;;;;;;4425240;32;20260;-70
2022/02/14 05:37:17;;;;;;;23.97;9.30;;;-1.40;99.90;;;;;;4422967;32;20234;-70
2022/02/14 05:39:45;;;;;;;22.40;9.70;;;-1.40;99.90;;;;;;4423778;32;20420;-70
2022/02/14 05:42:12;;;;;;;25.77;9.67;;;-1.40;99.90;;;;;;4423652;32;20197;-70
2022/02/14 05:44:39;;;;;;;20.40;10.00;;;-1.40;99.90;;;;;;4422965;32;20191;-70
2022/02/14 05:47:07;;;;;;;23.47;10.13;;;-1.40;99.90;;;;;;4424287;32;20244;-69
2022/02/14 05:49:34;;;;;;;24.93;9.90;;;-1.40;99.90;;;;;;4423174;32;20226;-70
2022/02/14 05:52:01;;;;;;;23.03;10.10;;;-1.40;99.90;;;;;;4423647;32;20178;-70
2022/02/14 05:54:28;;;;;;;24.53;10.27;;;-1.40;99.90;;;;;;4424729;32;20258;-70
2022/02/14 05:56:55;;;;;;;20.77;9.60;;;-1.40;99.90;;;;;;4425094;32;20501;-70
2022/02/14 05:59:22;;;;;;;26.37;10.53;;;-1.40;99.90;;;;;;4423943;32;20212;-70
2022/02/14 06:01:49;;;;;;;22.93;9.97;;;-1.30;99.90;;;;;;4423153;32;20552;-70
2022/02/14 06:04:18;;;;;;;23.27;9.83;;;-1.30;99.90;;;;;;4422532;32;20224;-70
2022/02/14 06:06:45;;;;;;;25.33;9.73;;;-1.30;99.90;;;;;;4425414;32;20151;-69
2022/02/14 06:09:13;;;;;;;23.90;9.70;;;-1.30;99.90;;;;;;4422503;32;20405;-69
2022/02/14 06:11:40;;;;;;;22.47;9.33;;;-1.30;99.90;;;;;;4422848;32;20202;-69
2022/02/14 06:14:07;;;;;;;21.80;9.27;;;-1.30;99.90;;;;;;4425266;32;20183;-69
2022/02/14 06:16:34;;;;;;;23.10;9.70;;;-1.30;99.90;;;;;;4423022;32;20185;-69
2022/02/14 06:19:01;;;;;;;23.43;10.03;;;-1.30;99.90;;;;;;4422800;32;20206;-69
2022/02/14 06:21:28;;;;;;;23.13;9.60;;;-1.20;99.90;;;;;;4424118;32;20398;-69
2022/02/14 06:23:55;;;;;;;23.43;9.27;;;-1.20;99.90;;;;;;4423093;32;20262;-69
2022/02/14 06:26:22;;;;;;;22.93;9.37;;;-1.20;99.90;;;;;;4424210;32;20233;-69
2022/02/14 06:28:49;;;;;;;20.77;8.70;;;-1.10;99.90;;;;;;4424107;32;20408;-69
2022/02/14 06:31:16;;;;;;;24.17;9.90;;;-1.10;99.90;;;;;;4422988;32;20236;-69
2022/02/14 06:33:43;;;;;;;23.97;10.10;;;-1.10;99.90;;;;;;4424812;32;20245;-69
2022/02/14 06:36:10;;;;;;;23.93;8.77;;;-1.10;99.90;;;;;;4427018;32;20201;-69
2022/02/14 06:38:37;;;;;;;21.70;9.17;;;-1.00;99.90;;;;;;4425158;32;20210;-69
2022/02/14 06:41:04;;;;;;;20.33;9.03;;;-1.00;99.90;;;;;;4425984;32;20237;-69
2022/02/14 06:43:31;;;;;;;19.43;8.97;;;-0.90;99.90;;;;;;4427482;32;20165;-69
2022/02/14 06:45:58;;;;;;;20.67;9.00;;;-0.90;99.90;;;;;;4428019;32;20356;-69
2022/02/14 06:48:25;;;;;;;24.00;8.93;;;-0.80;99.90;;;;;;4426772;32;20421;-69
2022/02/14 06:50:54;;;;;;;20.93;8.37;;;-0.70;99.90;;;;;;4424962;32;20178;-69
2022/02/14 06:53:21;;;;;;;21.53;9.23;;;-0.60;99.90;;;;;;4425435;32;20209;-69
2022/02/14 06:55:48;;;;;;;22.00;8.93;;;-0.60;99.90;;;;;;4425550;32;20554;-69
2022/02/14 06:58:15;;;;;;;20.07;8.10;;;-0.50;99.90;;;;;;4426881;32;20180;-69
2022/02/14 07:00:42;;;;;;;21.20;7.93;;;-0.50;99.90;;;;;;4425858;32;20225;-69
2022/02/14 07:03:10;;;;;;;18.23;8.70;;;-0.40;99.90;;;;;;4426101;32;20373;-69
2022/02/14 07:05:38;;;;;;;19.30;8.50;;;-0.30;99.90;;;;;;4425500;32;20194;-69
2022/02/14 07:08:08;;;;;;;19.53;8.43;;;-0.30;99.90;;;;;;4425384;32;20174;-69
2022/02/14 07:10:36;;;;;;;21.20;8.50;;;-0.20;99.90;;;;;;4426245;32;20195;-69
2022/02/14 07:13:03;;;;;;;19.03;9.10;;;-0.10;99.90;;;;;;4425976;32;20413;-69
2022/02/14 07:15:31;;;;;;;20.00;8.27;;;-0.10;99.90;;;;;;4426342;32;20170;-69
2022/02/14 07:18:04;;;;;;;19.27;8.53;;;0.00;99.90;;;;;;4425036;32;20525;-69
2022/02/14 07:20:31;;;;;;;18.93;8.47;;;0.10;99.90;;;;;;4425535;32;20423;-69
2022/02/14 07:22:58;;;;;;;19.00;7.90;;;0.20;99.90;;;;;;4424554;32;20303;-69
2022/02/14 07:25:25;;;;;;;17.70;8.43;;;0.20;99.90;;;;;;4424766;32;20436;-69
2022/02/14 07:27:52;;;;;;;23.27;7.93;;;0.30;99.90;;;;;;4425271;32;20234;-69
2022/02/14 07:30:20;;;;;;;19.07;8.13;;;0.40;99.90;;;;;;4426357;32;20180;-69
2022/02/14 07:32:47;;;;;;;17.10;8.37;;;0.50;99.90;;;;;;4427374;32;20520;-69
2022/02/14 07:35:14;;;;;;;19.13;8.60;;;0.60;99.90;;;;;;4428372;32;20197;-69
2022/02/14 07:37:44;;;;;;;23.17;9.03;;;0.60;99.90;;;;;;4427883;32;20201;-69
2022/02/14 07:40:16;;;;;;;20.43;9.47;;;0.70;99.90;;;;;;4427286;32;20189;-70
2022/02/14 07:42:48;;;;;;;20.47;9.00;;;0.70;99.90;;;;;;4428946;32;20209;-69
2022/02/14 07:45:15;;;;;;;19.90;8.83;;;0.70;99.90;;;;;;4439912;32;20161;-69
2022/02/14 07:47:42;;;;;;;19.47;9.33;;;0.80;99.90;;;;;;4426678;32;20613;-69
2022/02/14 07:50:13;;;;;;;20.50;9.50;;;0.80;99.90;;;;;;4426541;32;20167;-69
2022/02/14 07:52:40;;;;;;;21.67;9.10;;;0.90;99.90;;;;;;4426480;32;20194;-69
2022/02/14 07:55:08;;;;;;;21.93;10.10;;;1.00;99.90;;;;;;4427729;32;20236;-70
2022/02/14 07:57:35;;;;;;;20.10;9.60;;;1.00;99.90;;;;;;4440879;32;20413;-69
2022/02/14 08:00:04;;;;;;;20.07;9.57;;;1.10;99.90;;;;;;4422607;32;20206;-69
2022/02/14 08:02:31;;;;;;;21.23;9.47;;;1.20;99.90;;;;;;4415943;32;20235;-68
2022/02/14 08:04:58;;;;;;;21.83;10.13;;;1.20;99.90;;;;;;4413167;32;20554;-67
2022/02/14 08:07:30;;;;;;;22.83;10.03;;;1.40;99.90;;;;;;4411716;32;20201;-68
2022/02/14 08:10:18;;;;;;;21.97;9.60;;;1.50;99.90;;;;;;4411759;32;20170;-69
2022/02/14 08:12:45;;;;;;;19.67;9.03;;;1.60;99.90;;;;;;4412869;32;20171;-69
2022/02/14 08:15:12;;;;;;;20.33;9.13;;;1.70;99.90;;;;;;4411367;32;20178;-69
2022/02/14 08:17:39;;;;;;;20.77;9.60;;;2.10;99.90;;;;;;4412399;32;20182;-69
2022/02/14 08:20:06;;;;;;;18.50;9.10;;;2.60;99.90;;;;;;4424891;32;20177;-69
2022/02/14 08:22:33;;;;;;;18.77;9.27;;;3.20;99.90;;;;;;4411405;32;20521;-69
2022/02/14 08:25:00;;;;;;;23.53;9.63;;;3.70;99.90;;;;;;4412205;32;20171;-70
2022/02/14 08:27:27;;;;;;;19.80;9.43;;;4.10;99.90;;;;;;4412030;32;20244;-69
2022/02/14 08:29:57;;;;;;;21.03;9.80;;;4.50;99.90;;;;;;4412011;32;20163;-69
2022/02/14 08:32:24;;;;;;;19.43;9.37;;;4.90;99.90;;;;;;4426104;32;20387;-68
2022/02/14 08:34:51;;;;;;;20.90;9.83;;;5.30;99.90;;;;;;4423294;32;20186;-70
2022/02/14 08:37:18;;;;;;;22.07;9.77;;;5.70;99.90;;;;;;4424047;32;20454;-69
2022/02/14 08:39:45;;;;;;;17.97;9.50;;;5.90;99.90;;;;;;4425921;32;20423;-69
2022/02/14 08:42:14;;;;;;;19.63;10.00;;;6.10;99.90;;;;;;4423578;32;20190;-68
2022/02/14 08:44:41;;;;;;;18.20;9.77;;;6.30;99.60;;;;;;4425073;32;20151;-70
2022/02/14 08:47:09;;;;;;;18.43;9.67;;;6.50;98.90;;;;;;4425606;32;20405;-68
2022/02/14 08:49:37;;;;;;;19.77;9.73;;;6.60;98.00;;;;;;4424064;32;20235;-69
2022/02/14 08:52:04;;;;;;;18.83;10.00;;;6.80;97.50;;;;;;4423854;32;20177;-68
2022/02/14 08:54:31;;;;;;;19.33;9.47;;;7.00;96.10;;;;;;4423727;32;20182;-68
2022/02/14 08:56:58;;;;;;;19.70;9.53;;;7.10;95.20;;;;;;4423469;32;20202;-69
2022/02/14 08:59:26;;;;;;;19.20;9.23;;;7.30;93.70;;;;;;4426032;32;20153;-69
2022/02/14 09:01:53;;;;;;;17.27;9.40;;;7.30;92.10;;;;;;4423081;32;20192;-70
2022/02/14 09:04:23;;;;;;;19.20;10.20;;;7.40;92.40;;;;;;4424745;32;20509;-69
2022/02/14 09:06:50;;;;;;;23.00;8.90;;;7.60;92.70;;;;;;4424864;32;20253;-69
2022/02/14 09:09:30;;;;;;;20.70;9.67;;;7.90;92.00;;;;;;4423379;32;20179;-69
2022/02/14 09:12:00;;;;;;;18.77;9.37;;;8.10;90.60;;;;;;4425110;32;20213;-69
2022/02/14 09:14:27;;;;;;;20.63;9.13;;;8.40;88.90;;;;;;4422373;32;20508;-69
2022/02/14 09:16:54;;;;;;;18.07;9.47;;;8.60;84.80;;;;;;4424043;32;20366;-69
2022/02/14 09:19:21;;;;;;;21.30;10.20;;;8.80;83.50;;;;;;4423249;32;20415;-69
2022/02/14 09:21:48;;;;;;;18.17;9.80;;;8.90;82.60;;;;;;4423457;32;20186;-69
2022/02/14 09:24:15;;;;;;;17.83;9.43;;;9.20;80.60;;;;;;4425346;32;20189;-70
2022/02/14 09:26:45;;;;;;;19.30;9.40;;;9.40;79.40;;;;;;4423299;32;20456;-69
2022/02/14 09:29:13;;;;;;;20.10;9.30;;;9.60;76.10;;;;;;4423370;32;20473;-70
2022/02/14 09:31:41;;;;;;;18.20;9.60;;;9.80;75.70;;;;;;4423592;32;20425;-69
2022/02/14 09:34:08;;;;;;;19.20;9.60;;;9.90;74.50;;;;;;4422590;32;20175;-68
2022/02/14 09:36:36;;;;;;;16.70;9.40;;;10.10;74.20;;;;;;4422799;32;20224;-68
2022/02/14 09:39:04;;;;;;;20.53;9.33;;;10.20;71.50;;;;;;4425372;32;20155;-68
2022/02/14 09:41:31;;;;;;;18.43;9.63;;;10.30;71.10;;;;;;4422899;32;20201;-68
2022/02/14 09:44:00;;;;;;;17.17;9.30;;;10.30;71.20;;;;;;4424135;32;20197;-68
2022/02/14 09:46:30;;;;;;;16.77;9.40;;;10.60;70.70;;;;;;4422858;32;20267;-68
2022/02/14 09:49:03;;;;;;;18.93;9.57;;;11.10;68.00;;;;;;4422786;32;20210;-68
2022/02/14 09:51:31;;;;;;;18.67;9.83;;;11.10;67.30;;;;;;4423484;32;20431;-68
2022/02/14 09:53:58;;;;;;;18.00;9.87;;;11.50;66.40;;;;;;4423768;32;20453;-68
2022/02/14 09:56:29;;;;;;;14.57;8.73;;;11.90;64.60;;;;;;4424973;32;20239;-68
2022/02/14 09:58:57;;;;;;;16.23;8.53;;;12.00;63.00;;;;;;4422260;32;20213;-68
2022/02/14 10:01:27;;;;;;;15.67;8.80;;;12.10;61.20;;;;;;4423969;32;20201;-68
2022/02/14 10:03:55;;;;;;;17.07;8.83;;;12.30;61.10;;;;;;4423938;32;20453;-68
2022/02/14 10:06:31;;;;;;;17.50;8.57;;;12.20;59.90;;;;;;4422564;32;20174;-68
2022/02/14 10:09:10;;;;;;;16.83;9.07;;;12.20;59.50;;;;;;4425364;32;20241;-68
2022/02/14 10:11:42;;;;;;;16.40;9.10;;;12.30;60.90;;;;;;4422387;32;20248;-68
2022/02/14 10:14:18;;;;;;;17.60;8.83;;;12.60;60.00;;;;;;4424860;32;20206;-68
2022/02/14 10:17:07;;;;;;;18.00;9.80;;;12.70;58.40;;;;;;4422655;32;20212;-69
2022/02/14 10:19:53;;;;;;;18.83;9.17;;;12.80;59.10;;;;;;4422740;32;20232;-68
2022/02/14 10:22:20;;;;;;;16.67;8.60;;;12.80;57.40;;;;;;4422510;32;20251;-66
2022/02/14 10:24:48;;;;;;;15.40;8.93;;;12.50;58.20;;;;;;4423395;32;20436;-67
2022/02/14 10:27:15;;;;;;;16.73;8.53;;;12.60;58.90;;;;;;4423648;32;20189;-66
2022/02/14 10:29:42;;;;;;;17.07;9.67;;;12.50;57.80;;;;;;4422425;32;20171;-67
2022/02/14 10:32:23;;;;;;;14.83;8.77;;;12.70;58.60;;;;;;4423206;32;20427;-67
2022/02/14 10:34:54;;;;;;;19.63;8.70;;;13.10;57.70;;;;;;4423704;32;20217;-68
2022/02/14 10:37:43;;;;;;;17.20;9.20;;;13.20;57.10;;;;;;4424050;32;20154;-67
2022/02/14 10:40:28;;;;;;;16.33;8.57;;;13.30;57.10;;;;;;4421918;32;20182;-67
2022/02/14 10:42:55;;;;;;;15.50;8.90;;;13.70;57.00;;;;;;4422172;32;20268;-67
2022/02/14 10:45:22;;;;;;;18.60;9.10;;;13.80;56.30;;;;;;4423443;32;20229;-67
2022/02/14 10:47:50;;;;;;;14.00;8.30;;;13.80;55.50;;;;;;4422765;32;20237;-67
2022/02/14 10:50:23;;;;;;;16.27;9.00;;;13.90;55.70;;;;;;4422956;32;20236;-66
2022/02/14 10:52:52;;;;;;;16.37;9.30;;;13.90;55.50;;;;;;4426023;32;20180;-67
2022/02/14 10:55:21;;;;;;;17.43;9.47;;;14.20;55.30;;;;;;4426311;32;20441;-67
2022/02/14 10:57:49;;;;;;;17.10;8.93;;;13.50;54.80;;;;;;4426906;32;20174;-66
2022/02/14 11:00:21;;;;;;;16.57;8.57;;;13.40;56.20;;;;;;4440381;32;20363;-67
2022/02/14 11:02:51;;;;;;;18.73;8.83;;;13.60;57.20;;;;;;4424554;32;20178;-66
2022/02/14 11:05:20;;;;;;;21.67;9.57;;;13.50;55.90;;;;;;4424987;32;20176;-69
2022/02/14 11:07:47;;;;;;;21.83;9.27;;;13.50;55.80;;;;;;4424821;32;20217;-68
2022/02/14 11:10:16;;;;;;;17.97;9.13;;;13.70;56.30;;;;;;4424446;32;20178;-68
2022/02/14 11:12:51;;;;;;;16.90;8.67;;;14.00;54.90;;;;;;4424922;32;20178;-68
2022/02/14 11:15:18;;;;;;;17.77;8.87;;;14.00;55.80;;;;;;4424831;32;20447;-68
2022/02/14 11:17:52;;;;;;;15.33;9.10;;;14.50;55.10;;;;;;4424507;32;20205;-69
2022/02/14 11:20:19;;;;;;;18.57;9.10;;;15.00;54.40;;;;;;4415066;32;20244;-68
2022/02/14 11:22:53;;;;;;;17.23;8.80;;;15.20;53.10;;;;;;4427316;32;20206;-68
2022/02/14 11:25:50;;;;;;;15.37;9.00;;;15.40;52.50;;;;;;4427467;32;20193;-68
2022/02/14 11:28:34;;;;;;;18.93;9.30;;;15.70;52.30;;;;;;4428408;32;20189;-68
2022/02/14 11:31:17;;;;;;;14.43;9.07;;;15.50;50.60;;;;;;4425133;32;20186;-68
2022/02/14 11:33:52;;;;;;;15.30;8.97;;;14.90;51.70;;;;;;4424891;32;20198;-67
2022/02/14 11:36:20;;;;;;;17.77;9.87;;;14.80;51.80;;;;;;4426162;32;20192;-67
2022/02/14 11:38:49;;;;;;;15.97;9.20;;;14.70;52.20;;;;;;4424373;32;20213;-68
2022/02/14 11:41:29;;;;;;;17.10;9.67;;;14.70;52.60;;;;;;4425997;32;20150;-68
2022/02/14 11:44:24;;;;;;;14.20;9.17;;;14.60;52.90;;;;;;4426437;32;20421;-69
2022/02/14 11:46:53;;;;;;;15.60;9.33;;;14.70;53.00;;;;;;4426015;32;20448;-68
2022/02/14 11:49:23;;;;;;;16.20;9.60;;;14.80;52.50;;;;;;4424382;32;20238;-69
2022/02/14 11:52:25;;;;;;;18.27;9.40;;;14.80;53.10;;;;;;4424366;32;20178;-68
2022/02/14 11:54:52;;;;;;;16.03;9.30;;;14.90;52.40;;;;;;4424943;32;20174;-68
2022/02/14 11:57:31;;;;;;;17.03;9.73;;;15.10;52.40;;;;;;4423870;32;20179;-68
2022/02/14 12:00:14;;;;;;;18.20;9.53;;;15.10;51.60;;;;;;4424893;32;20182;-68
2022/02/14 12:02:58;;;;;;;15.80;9.20;;;15.40;52.10;;;;;;4424311;32;20186;-68
2022/02/14 12:05:41;;;;;;;18.20;9.67;;;15.60;51.60;;;;;;4426963;32;20194;-69
2022/02/14 12:08:08;;;;;;;20.50;9.97;;;16.10;50.90;;;;;;4425779;32;20194;-68
2022/02/14 12:11:01;;;;;;;16.87;9.70;;;16.10;50.40;;;;;;4424679;32;20178;-68
2022/02/14 12:13:34;;;;;;;17.33;10.27;;;16.30;50.70;;;;;;4422538;32;20178;-69
2022/02/14 12:21:18;;;;;;;16.00;9.20;;;16.20;50.20;;;;;;4425154;32;20182;-69
2022/02/14 12:24:23;;;;;;;14.80;9.47;;;16.20;49.80;;;;;;4426404;32;20167;-69
2022/02/14 12:26:59;;;;;;;16.93;10.03;;;16.70;50.00;;;;;;4423882;32;20174;-69
2022/02/14 12:29:41;;;;;;;16.77;9.80;;;16.40;49.00;;;;;;4423712;32;20245;-68
2022/02/14 12:32:17;;;;;;;17.00;9.53;;;16.20;50.30;;;;;;4423253;32;20253;-69
2022/02/14 12:34:50;;;;;;;16.03;9.60;;;16.40;50.50;;;;;;4423934;32;20528;-68
2022/02/14 12:37:19;;;;;;;18.60;10.20;;;16.60;49.40;;;;;;4423676;32;20564;-69
2022/02/14 12:39:50;;;;;;;19.03;10.27;;;16.70;49.90;;;;;;4425123;32;20580;-68
2022/02/14 12:42:25;;;;;;;17.50;9.90;;;16.70;49.80;;;;;;4423920;32;20247;-68
2022/02/14 12:44:55;;;;;;;19.20;10.57;;;16.70;49.50;;;;;;4423254;32;20532;-67
2022/02/14 12:47:25;;;;;;;17.73;10.17;;;16.70;49.30;;;;;;4425528;32;20205;-67